Taft Beach — WBQ9253 — position and weather

sailwx.info

Track history (hours):
 
Tides and Currents Weather Stations Pressure Air Temp Water Temp Dewpoint Dewpoint Depression Visibility Wind Speed Wind Dir Waves Ship Positions

Taft Beach

Owner: DOUGLAS MARINE INC, CHESAPEAKE, VA. More information available from US FCC via Universal Licensing System and Coast Guard Vessel Documentation Center.

Last reported at 2017-Oct-18 02:30 UTC. Time now 2017-Oct-18 02:35 UTC.
Position N 40°45' W 074°04'.

; draft 0.31 m.

Type: Tug. MMSI: 367016410.

Date/timePositionNaut miles runAvg speedWind from/ knotsBaromVisibWave heightAir tempDewpointWater temp
2017-Oct-18 02:30N 40°45' W 074°04'1 1.3
2017-Oct-18 01:59N 40°44' W 074°05'2 5.0
2017-Oct-18 01:30N 40°42' W 074°07'2 4.8
2017-Oct-18 01:00N 40°40' W 074°08'0 0.5
2017-Oct-18 00:30N 40°40' W 074°08'0 0.0
2017-Oct-18 00:00N 40°40' W 074°08'0 0.0
2017-Oct-17 23:29N 40°40' W 074°08'0 0.0
2017-Oct-17 23:00N 40°40' W 074°08'0 0.0
2017-Oct-17 22:30N 40°40' W 074°08'0 0.0
2017-Oct-17 21:58N 40°40' W 074°08'0 0.0
2017-Oct-17 21:30N 40°40' W 074°08'0 0.0
2017-Oct-17 20:59N 40°40' W 074°08'2 4.0
2017-Oct-17 20:30N 40°42' W 074°07'2 4.4
2017-Oct-17 20:00N 40°44' W 074°06'2 0.3
2017-Oct-17 14:30N 40°45' W 074°04'0 0.0
2017-Oct-17 13:09N 40°45' W 074°04'0 0.0
2017-Oct-17 10:07N 40°45' W 074°04'0 0.3
2017-Oct-17 09:53N 40°45' W 074°05'3 7.9
2017-Oct-17 09:30N 40°42' W 074°07'2 3.8
2017-Oct-17 09:00N 40°41' W 074°08'1 2.4
2017-Oct-17 08:30N 40°42' W 074°07'2 4.2
2017-Oct-17 08:00N 40°44' W 074°06'1 2.8
2017-Oct-17 07:30N 40°45' W 074°05'0 0.4
2017-Oct-17 06:54N 40°45' W 074°04'0 0.1
2017-Oct-17 05:43N 40°45' W 074°04'0 0.0
2017-Oct-17 05:28N 40°45' W 074°04'0 0.0
2017-Oct-17 04:56N 40°45' W 074°04'0 0.0
2017-Oct-17 02:56N 40°45' W 074°04'0 0.0
2017-Oct-17 02:22N 40°45' W 074°04'0 0.0
2017-Oct-17 01:57N 40°45' W 074°04'0 0.0
2017-Oct-17 01:23N 40°45' W 074°04'0 0.0
2017-Oct-16 23:55N 40°45' W 074°04'0 0.0
2017-Oct-16 23:30N 40°45' W 074°04'0 0.0
2017-Oct-16 22:55N 40°45' W 074°04'0 0.0
2017-Oct-16 18:00N 40°45' W 074°04'0 0.0
2017-Oct-16 17:12N 40°45' W 074°04'0 0.0
2017-Oct-16 16:03N 40°45' W 074°04'0 0.0
2017-Oct-16 15:56N 40°45' W 074°04'0 0.0
2017-Oct-16 15:28N 40°45' W 074°04'0 0.0
2017-Oct-16 10:55N 40°45' W 074°04'0 0.0
2017-Oct-16 10:30N 40°45' W 074°04'0 0.0
2017-Oct-16 09:30N 40°45' W 074°04'0 0.0
2017-Oct-16 08:11N 40°45' W 074°04'0 0.0
2017-Oct-16 08:00N 40°45' W 074°04'0 0.0
2017-Oct-16 07:30N 40°45' W 074°04'0 0.0
2017-Oct-16 06:57N 40°45' W 074°04'0 0.0
2017-Oct-16 06:27N 40°45' W 074°04'0 0.0
2017-Oct-16 06:00N 40°45' W 074°04'0 0.0
2017-Oct-16 05:30N 40°45' W 074°04'1 1.8
2017-Oct-16 04:59N 40°44' W 074°05'3 5.1
2017-Oct-16 04:30N 40°42' W 074°07'2 2.1
2017-Oct-16 03:19N 40°40' W 074°08'0 0.0
2017-Oct-16 02:53N 40°40' W 074°08'0 0.0
2017-Oct-16 02:30N 40°40' W 074°08'0 0.0
2017-Oct-16 01:58N 40°40' W 074°08'0 0.0
2017-Oct-16 01:28N 40°40' W 074°08'0 0.0
2017-Oct-16 00:59N 40°40' W 074°08'0 0.0
2017-Oct-16 00:30N 40°40' W 074°08'0 0.0
2017-Oct-15 23:46N 40°40' W 074°08'0 0.0
2017-Oct-15 23:27N 40°40' W 074°08'0 0.0
2017-Oct-15 22:57N 40°40' W 074°08'0 0.0
2017-Oct-15 22:24N 40°40' W 074°08'1 3.1
2017-Oct-15 21:57N 40°39' W 074°09'3 6.0
2017-Oct-15 21:30N 40°39' W 074°05'2 0.7
2017-Oct-15 18:22N 40°37' W 074°03'0 0.2
2017-Oct-15 17:59N 40°37' W 074°03'0 0.1
2017-Oct-15 17:29N 40°37' W 074°03'5 3.7
2017-Oct-15 16:13N 40°39' W 074°09'1 5.4
2017-Oct-15 16:00N 40°40' W 074°08'0 0.2
2017-Oct-15 15:30N 40°40' W 074°08'0 0.0
2017-Oct-15 15:00N 40°40' W 074°08'0 0.0
2017-Oct-15 13:59N 40°40' W 074°08'0 0.0
2017-Oct-15 13:23N 40°40' W 074°08'0 0.0
2017-Oct-15 12:59N 40°40' W 074°08'0 0.0
2017-Oct-15 12:30N 40°40' W 074°08'0 0.0
2017-Oct-15 11:59N 40°40' W 074°08'0 0.0
2017-Oct-15 11:30N 40°40' W 074°08'0 0.0
2017-Oct-15 10:56N 40°40' W 074°08'0 0.0
2017-Oct-15 10:26N 40°40' W 074°08'0 0.0
2017-Oct-15 10:00N 40°40' W 074°08'0 0.0
2017-Oct-15 09:30N 40°40' W 074°08'0 0.0
2017-Oct-15 09:00N 40°40' W 074°08'0 0.0
2017-Oct-15 08:13N 40°40' W 074°08'0 0.0
2017-Oct-15 08:00N 40°40' W 074°08'0 0.0
2017-Oct-15 07:30N 40°40' W 074°08'0 0.0
2017-Oct-15 07:00N 40°40' W 074°08'1 2.9
2017-Oct-15 06:30N 40°41' W 074°08'2 4.5
2017-Oct-15 06:00N 40°43' W 074°06'2 4.0
2017-Oct-15 05:30N 40°45' W 074°05'0 0.3
2017-Oct-15 04:59N 40°45' W 074°04'0 0.0
2017-Oct-15 04:29N 40°45' W 074°04'0 0.0
2017-Oct-15 04:00N 40°45' W 074°04'0 0.0
2017-Oct-15 03:29N 40°45' W 074°04'0 0.0
2017-Oct-15 03:00N 40°45' W 074°04'0 0.0
2017-Oct-15 02:29N 40°45' W 074°04'0 0.0
2017-Oct-15 01:18N 40°45' W 074°04'0 0.2
2017-Oct-15 00:58N 40°45' W 074°04'0 0.1
2017-Oct-15 00:30N 40°45' W 074°05'0 0.1
2017-Oct-14 23:18N 40°45' W 074°04'0 0.1
2017-Oct-14 23:00N 40°45' W 074°04'0 0.0
2017-Oct-14 15:59N 40°45' W 074°04'0 0.0
2017-Oct-14 15:30N 40°45' W 074°04'0 0.0
2017-Oct-14 14:50N 40°45' W 074°04'0 0.1
2017-Oct-14 14:29N 40°45' W 074°04'0 0.0
2017-Oct-14 14:00N 40°45' W 074°04'0 0.0
2017-Oct-14 13:30N 40°45' W 074°04'0 0.0
2017-Oct-14 13:00N 40°45' W 074°04'0 0.0
2017-Oct-14 12:29N 40°45' W 074°04'0 0.0
2017-Oct-14 11:59N 40°45' W 074°04'0 0.0
2017-Oct-14 11:29N 40°45' W 074°04'0 0.0
2017-Oct-14 10:51N 40°45' W 074°04'0 0.0
2017-Oct-14 10:27N 40°45' W 074°04'0 0.0
2017-Oct-14 04:04N 40°45' W 074°04'0 0.0
2017-Oct-14 03:59N 40°45' W 074°04'0 0.2
2017-Oct-14 03:29N 40°45' W 074°05'1 2.0
2017-Oct-14 03:00N 40°44' W 074°05'0 0.8
2017-Oct-14 02:29N 40°44' W 074°06'2 4.8
2017-Oct-14 02:00N 40°42' W 074°07'1 1.7
2017-Oct-14 01:30N 40°41' W 074°08'4 8.1
2017-Oct-14 01:00N 40°44' W 074°05'0 0.8
2017-Oct-14 00:29N 40°45' W 074°04'0 0.0
2017-Oct-13 23:59N 40°45' W 074°04'0 0.0
2017-Oct-13 23:27N 40°45' W 074°04'0 0.0
2017-Oct-13 21:20N 40°45' W 074°04'0 0.0
2017-Oct-13 20:55N 40°45' W 074°04'0 0.0
2017-Oct-13 20:30N 40°45' W 074°04'0 0.0
2017-Oct-13 11:27N 40°45' W 074°04'0 0.0
2017-Oct-13 10:58N 40°45' W 074°04'0 0.0
2017-Oct-13 02:24N 40°45' W 074°05'1 2.5
2017-Oct-13 02:00N 40°44' W 074°05'3 5.4
2017-Oct-13 01:29N 40°42' W 074°07'2 0.7
2017-Oct-12 22:40N 40°40' W 074°08'0 0.0
2017-Oct-12 22:29N 40°40' W 074°08'0 0.0
2017-Oct-12 21:55N 40°40' W 074°08'0 0.0
2017-Oct-12 21:29N 40°40' W 074°08'0 0.0
2017-Oct-12 20:58N 40°40' W 074°08'0 0.0
2017-Oct-12 20:26N 40°40' W 074°08'0 0.0
2017-Oct-12 19:10N 40°40' W 074°08'0 0.0
2017-Oct-12 18:36N 40°40' W 074°08'0 0.2
2017-Oct-12 18:29N 40°40' W 074°08'1 2.8
2017-Oct-12 18:00N 40°39' W 074°07'3 6.0
2017-Oct-12 17:30N 40°38' W 074°04'1 0.2
2017-Oct-12 13:29N 40°37' W 074°03'0 0.0
2017-Oct-12 13:00N 40°37' W 074°03'0 0.0
2017-Oct-12 12:30N 40°37' W 074°03'0 0.4
2017-Oct-12 12:00N 40°37' W 074°03'0 0.8
2017-Oct-12 11:30N 40°37' W 074°04'0 0.0
2017-Oct-12 11:00N 40°37' W 074°03'1 1.4
2017-Oct-12 10:29N 40°38' W 074°03'2 4.9
2017-Oct-12 10:00N 40°39' W 074°06'2 4.2
2017-Oct-12 09:29N 40°39' W 074°09'3 6.7
2017-Oct-12 09:00N 40°42' W 074°07'2 3.0
2017-Oct-12 08:30N 40°43' W 074°06'1 2.9
2017-Oct-12 08:00N 40°44' W 074°05'1 1.2
2017-Oct-12 07:30N 40°45' W 074°04'0 0.0
2017-Oct-12 07:00N 40°45' W 074°04'0 0.0
2017-Oct-12 06:25N 40°45' W 074°04'0 0.0
2017-Oct-12 05:57N 40°45' W 074°04'0 0.0
2017-Oct-12 04:33N 40°45' W 074°04'0 0.0
2017-Oct-12 04:21N 40°45' W 074°04'0 0.0
2017-Oct-12 03:59N 40°45' W 074°04'0 0.0
2017-Oct-12 03:29N 40°45' W 074°04'0 0.0
2017-Oct-12 01:51N 40°45' W 074°04'0 0.0
2017-Oct-12 01:30N 40°45' W 074°04'0 0.0
2017-Oct-12 00:59N 40°45' W 074°04'0 0.0
2017-Oct-12 00:30N 40°45' W 074°04'0 0.0
2017-Oct-12 00:00N 40°45' W 074°04'0 0.0
2017-Oct-11 23:30N 40°45' W 074°04'0 0.0
2017-Oct-11 23:00N 40°45' W 074°04'0 0.0
2017-Oct-11 22:29N 40°45' W 074°04'0 0.0
2017-Oct-11 21:59N 40°45' W 074°04'0 0.0
2017-Oct-10 23:59N 40°45' W 074°04'1 1.3
2017-Oct-10 23:30N 40°44' W 074°05'3 6.2
2017-Oct-10 23:00N 40°42' W 074°07'2 2.8
2017-Oct-10 22:15N 40°40' W 074°08'0 0.0
2017-Oct-10 20:16N 40°40' W 074°08'0 0.0
2017-Oct-10 19:46N 40°40' W 074°08'0 0.0
2017-Oct-10 19:28N 40°40' W 074°08'1 1.1
2017-Oct-10 18:59N 40°39' W 074°09'2 3.9
2017-Oct-10 18:29N 40°39' W 074°06'3 5.5
2017-Oct-10 17:59N 40°39' W 074°03'0 0.4
2017-Oct-10 17:30N 40°40' W 074°03'0 0.0
2017-Oct-10 16:59N 40°40' W 074°03'0 0.0
2017-Oct-10 16:30N 40°40' W 074°03'0 0.1
2017-Oct-10 16:00N 40°40' W 074°03'0 0.1
2017-Oct-10 15:30N 40°40' W 074°03'0 0.1
2017-Oct-10 15:00N 40°40' W 074°03'0 0.1
2017-Oct-10 14:00N 40°39' W 074°03'0 0.2
2017-Oct-10 13:29N 40°39' W 074°03'0 0.4
2017-Oct-10 13:00N 40°39' W 074°03'0 0.1
2017-Oct-10 12:30N 40°39' W 074°03'5 3.9
2017-Oct-10 11:18N 40°39' W 074°09'1 2.7
2017-Oct-10 11:00N 40°40' W 074°08'0 0.0
2017-Oct-10 10:30N 40°40' W 074°08'0 0.0
2017-Oct-10 10:00N 40°40' W 074°08'0 0.0
2017-Oct-10 09:30N 40°40' W 074°08'0 0.0
2017-Oct-10 08:57N 40°40' W 074°08'0 0.0
2017-Oct-10 08:30N 40°40' W 074°08'0 0.0
2017-Oct-10 07:58N 40°40' W 074°08'0 0.0
2017-Oct-10 07:29N 40°40' W 074°08'0 0.0
2017-Oct-10 07:00N 40°40' W 074°08'0 0.0
2017-Oct-10 06:30N 40°40' W 074°08'0 0.0
2017-Oct-10 05:48N 40°40' W 074°08'0 0.0
2017-Oct-10 05:30N 40°40' W 074°08'0 0.0
2017-Oct-10 04:54N 40°40' W 074°08'0 0.0
2017-Oct-10 04:30N 40°40' W 074°08'0 0.0
2017-Oct-10 04:00N 40°40' W 074°08'0 0.0
2017-Oct-10 03:30N 40°40' W 074°08'0 0.0
2017-Oct-10 03:00N 40°40' W 074°08'0 0.0
2017-Oct-10 02:30N 40°40' W 074°08'0 0.0
2017-Oct-10 01:59N 40°40' W 074°08'0 0.0
2017-Oct-10 01:30N 40°40' W 074°08'0 0.0
2017-Oct-10 01:00N 40°40' W 074°08'0 0.0
2017-Oct-10 00:29N 40°40' W 074°08'0 0.0
2017-Oct-09 23:59N 40°40' W 074°08'0 0.0
2017-Oct-09 23:29N 40°40' W 074°08'0 0.0
2017-Oct-09 23:00N 40°40' W 074°08'2 4.1
2017-Oct-09 22:28N 40°42' W 074°09'0 0.1
2017-Oct-09 21:54N 40°42' W 074°09'2 5.3
2017-Oct-09 21:30N 40°40' W 074°08'0 0.0
2017-Oct-09 21:00N 40°40' W 074°08'0 0.0
2017-Oct-09 20:25N 40°40' W 074°08'0 0.0
2017-Oct-09 19:58N 40°40' W 074°08'0 0.0
2017-Oct-09 19:28N 40°40' W 074°08'0 0.0
2017-Oct-09 18:59N 40°40' W 074°08'0 0.0
2017-Oct-09 18:30N 40°40' W 074°08'0 0.0
2017-Oct-09 18:00N 40°40' W 074°08'0 0.0
2017-Oct-09 17:30N 40°40' W 074°08'0 0.0
2017-Oct-09 17:00N 40°40' W 074°08'0 0.0
2017-Oct-09 16:30N 40°40' W 074°08'0 0.0
2017-Oct-09 16:00N 40°40' W 074°08'0 0.0
2017-Oct-09 15:30N 40°40' W 074°08'0 0.0
2017-Oct-09 15:00N 40°40' W 074°08'0 0.0
2017-Oct-09 14:30N 40°40' W 074°08'0 0.0
2017-Oct-09 14:00N 40°40' W 074°08'0 0.3
2017-Oct-09 13:30N 40°40' W 074°08'2 3.1
2017-Oct-09 13:00N 40°39' W 074°09'3 6.0
2017-Oct-09 12:30N 40°39' W 074°05'1 1.6
2017-Oct-09 12:00N 40°40' W 074°04'0 0.1
2017-Oct-09 11:30N 40°40' W 074°04'0 0.1
2017-Oct-09 11:00N 40°40' W 074°04'1 2.4
2017-Oct-09 10:30N 40°39' W 074°05'3 5.4
2017-Oct-09 10:00N 40°39' W 074°09'1 2.8
2017-Oct-09 09:30N 40°40' W 074°08'0 0.0
2017-Oct-09 09:00N 40°40' W 074°08'0 0.0
2017-Oct-09 08:00N 40°40' W 074°08'0 0.0
2017-Oct-09 07:29N 40°40' W 074°08'0 0.0
2017-Oct-09 06:59N 40°40' W 074°08'0 0.0
2017-Oct-09 06:18N 40°40' W 074°08'0 0.0
2017-Oct-09 05:59N 40°40' W 074°08'0 0.0
2017-Oct-09 05:30N 40°40' W 074°08'0 0.0
2017-Oct-09 04:59N 40°40' W 074°08'0 0.0
2017-Oct-09 04:21N 40°40' W 074°08'0 0.0
2017-Oct-09 03:53N 40°40' W 074°08'0 0.0
2017-Oct-09 03:30N 40°40' W 074°08'0 0.0
2017-Oct-09 03:00N 40°40' W 074°08'0 0.0
2017-Oct-09 02:30N 40°40' W 074°08'0 0.0
2017-Oct-09 01:56N 40°40' W 074°08'0 0.0
2017-Oct-09 01:23N 40°40' W 074°08'0 0.0
2017-Oct-09 00:52N 40°40' W 074°08'0 0.0
2017-Oct-09 00:29N 40°40' W 074°08'0 0.0
2017-Oct-08 23:55N 40°40' W 074°08'0 0.0
2017-Oct-08 23:29N 40°40' W 074°08'0 0.0
2017-Oct-08 23:00N 40°40' W 074°08'0 0.0
2017-Oct-08 22:24N 40°40' W 074°08'0 0.0
2017-Oct-08 22:00N 40°40' W 074°08'0 0.0
2017-Oct-08 21:29N 40°40' W 074°08'0 0.0
2017-Oct-08 21:00N 40°40' W 074°08'0 0.0
2017-Oct-08 20:16N 40°40' W 074°08'0 0.0
2017-Oct-08 20:00N 40°40' W 074°08'0 0.0
2017-Oct-08 19:30N 40°40' W 074°08'0 0.0
2017-Oct-08 19:00N 40°40' W 074°08'0 0.0
2017-Oct-08 18:30N 40°40' W 074°08'0 0.0
2017-Oct-08 18:00N 40°40' W 074°08'0 0.0
2017-Oct-08 17:30N 40°40' W 074°08'0 0.0
2017-Oct-08 17:00N 40°40' W 074°08'0 0.0
2017-Oct-08 16:27N 40°40' W 074°08'0 0.0
2017-Oct-08 15:53N 40°40' W 074°08'0 0.0
2017-Oct-08 15:30N 40°40' W 074°08'0 0.0
2017-Oct-08 14:26N 40°40' W 074°08'0 0.0
2017-Oct-08 14:00N 40°40' W 074°08'0 0.0
2017-Oct-08 13:30N 40°40' W 074°08'0 0.0
2017-Oct-08 12:59N 40°40' W 074°08'0 0.0
2017-Oct-08 10:51N 40°40' W 074°08'0 0.0
2017-Oct-08 10:30N 40°40' W 074°08'0 0.0
2017-Oct-08 09:59N 40°40' W 074°08'0 0.0
2017-Oct-08 09:30N 40°40' W 074°08'0 0.0
2017-Oct-08 08:49N 40°40' W 074°08'0 0.0
2017-Oct-08 08:30N 40°40' W 074°08'0 0.0
2017-Oct-08 08:00N 40°40' W 074°08'0 0.0
2017-Oct-08 07:30N 40°40' W 074°08'0 0.0
2017-Oct-08 06:58N 40°40' W 074°08'0 0.0
2017-Oct-08 06:30N 40°40' W 074°08'0 0.0
2017-Oct-08 05:58N 40°40' W 074°08'0 0.0
2017-Oct-08 05:29N 40°40' W 074°08'0 0.0
2017-Oct-08 05:00N 40°40' W 074°08'0 0.0
2017-Oct-08 04:30N 40°40' W 074°08'0 0.0
2017-Oct-08 03:55N 40°40' W 074°08'0 0.0
2017-Oct-08 03:28N 40°40' W 074°08'0 0.0
2017-Oct-08 03:00N 40°40' W 074°08'  
Track history (hours):
 
Tides and Currents Weather Stations Pressure Air Temp Water Temp Dewpoint Dewpoint Depression Visibility Wind Speed Wind Dir Waves Ship Positions

Taft Beach

Owner: DOUGLAS MARINE INC, CHESAPEAKE, VA. More information available from US FCC via Universal Licensing System and Coast Guard Vessel Documentation Center.

Last reported at 2017-Oct-18 02:30 UTC. Time now 2017-Oct-18 02:35 UTC.
Position N 40°45' W 074°04'.

; draft 0.31 m.

Type: Tug. MMSI: 367016410.

Date/timePositionNaut miles runAvg speedWind from/ knotsBaromVisibWave heightAir tempDewpointWater temp
2017-Oct-18 02:30N 40°45' W 074°04'1 1.3
2017-Oct-18 01:59N 40°44' W 074°05'2 5.0
2017-Oct-18 01:30N 40°42' W 074°07'2 4.8
2017-Oct-18 01:00N 40°40' W 074°08'0 0.5
2017-Oct-18 00:30N 40°40' W 074°08'0 0.0
2017-Oct-18 00:00N 40°40' W 074°08'0 0.0
2017-Oct-17 23:29N 40°40' W 074°08'0 0.0
2017-Oct-17 23:00N 40°40' W 074°08'0 0.0
2017-Oct-17 22:30N 40°40' W 074°08'0 0.0
2017-Oct-17 21:58N 40°40' W 074°08'0 0.0
2017-Oct-17 21:30N 40°40' W 074°08'0 0.0
2017-Oct-17 20:59N 40°40' W 074°08'2 4.0
2017-Oct-17 20:30N 40°42' W 074°07'2 4.4
2017-Oct-17 20:00N 40°44' W 074°06'2 0.3
2017-Oct-17 14:30N 40°45' W 074°04'0 0.0
2017-Oct-17 13:09N 40°45' W 074°04'0 0.0
2017-Oct-17 10:07N 40°45' W 074°04'0 0.3
2017-Oct-17 09:53N 40°45' W 074°05'3 7.9
2017-Oct-17 09:30N 40°42' W 074°07'2 3.8
2017-Oct-17 09:00N 40°41' W 074°08'1 2.4
2017-Oct-17 08:30N 40°42' W 074°07'2 4.2
2017-Oct-17 08:00N 40°44' W 074°06'1 2.8
2017-Oct-17 07:30N 40°45' W 074°05'0 0.4
2017-Oct-17 06:54N 40°45' W 074°04'0 0.1
2017-Oct-17 05:43N 40°45' W 074°04'0 0.0
2017-Oct-17 05:28N 40°45' W 074°04'0 0.0
2017-Oct-17 04:56N 40°45' W 074°04'0 0.0
2017-Oct-17 02:56N 40°45' W 074°04'0 0.0
2017-Oct-17 02:22N 40°45' W 074°04'0 0.0
2017-Oct-17 01:57N 40°45' W 074°04'0 0.0
2017-Oct-17 01:23N 40°45' W 074°04'0 0.0
2017-Oct-16 23:55N 40°45' W 074°04'0 0.0
2017-Oct-16 23:30N 40°45' W 074°04'0 0.0
2017-Oct-16 22:55N 40°45' W 074°04'0 0.0
2017-Oct-16 18:00N 40°45' W 074°04'0 0.0
2017-Oct-16 17:12N 40°45' W 074°04'0 0.0
2017-Oct-16 16:03N 40°45' W 074°04'0 0.0
2017-Oct-16 15:56N 40°45' W 074°04'0 0.0
2017-Oct-16 15:28N 40°45' W 074°04'0 0.0
2017-Oct-16 10:55N 40°45' W 074°04'0 0.0
2017-Oct-16 10:30N 40°45' W 074°04'0 0.0
2017-Oct-16 09:30N 40°45' W 074°04'0 0.0
2017-Oct-16 08:11N 40°45' W 074°04'0 0.0
2017-Oct-16 08:00N 40°45' W 074°04'0 0.0
2017-Oct-16 07:30N 40°45' W 074°04'0 0.0
2017-Oct-16 06:57N 40°45' W 074°04'0 0.0
2017-Oct-16 06:27N 40°45' W 074°04'0 0.0
2017-Oct-16 06:00N 40°45' W 074°04'0 0.0
2017-Oct-16 05:30N 40°45' W 074°04'1 1.8
2017-Oct-16 04:59N 40°44' W 074°05'3 5.1
2017-Oct-16 04:30N 40°42' W 074°07'2 2.1
2017-Oct-16 03:19N 40°40' W 074°08'0 0.0
2017-Oct-16 02:53N 40°40' W 074°08'0 0.0
2017-Oct-16 02:30N 40°40' W 074°08'0 0.0
2017-Oct-16 01:58N 40°40' W 074°08'0 0.0
2017-Oct-16 01:28N 40°40' W 074°08'0 0.0
2017-Oct-16 00:59N 40°40' W 074°08'0 0.0
2017-Oct-16 00:30N 40°40' W 074°08'0 0.0
2017-Oct-15 23:46N 40°40' W 074°08'0 0.0
2017-Oct-15 23:27N 40°40' W 074°08'0 0.0
2017-Oct-15 22:57N 40°40' W 074°08'0 0.0
2017-Oct-15 22:24N 40°40' W 074°08'1 3.1
2017-Oct-15 21:57N 40°39' W 074°09'3 6.0
2017-Oct-15 21:30N 40°39' W 074°05'2 0.7
2017-Oct-15 18:22N 40°37' W 074°03'0 0.2
2017-Oct-15 17:59N 40°37' W 074°03'0 0.1
2017-Oct-15 17:29N 40°37' W 074°03'5 3.7
2017-Oct-15 16:13N 40°39' W 074°09'1 5.4
2017-Oct-15 16:00N 40°40' W 074°08'0 0.2
2017-Oct-15 15:30N 40°40' W 074°08'0 0.0
2017-Oct-15 15:00N 40°40' W 074°08'0 0.0
2017-Oct-15 13:59N 40°40' W 074°08'0 0.0
2017-Oct-15 13:23N 40°40' W 074°08'0 0.0
2017-Oct-15 12:59N 40°40' W 074°08'0 0.0
2017-Oct-15 12:30N 40°40' W 074°08'0 0.0
2017-Oct-15 11:59N 40°40' W 074°08'0 0.0
2017-Oct-15 11:30N 40°40' W 074°08'0 0.0
2017-Oct-15 10:56N 40°40' W 074°08'0 0.0
2017-Oct-15 10:26N 40°40' W 074°08'0 0.0
2017-Oct-15 10:00N 40°40' W 074°08'0 0.0
2017-Oct-15 09:30N 40°40' W 074°08'0 0.0
2017-Oct-15 09:00N 40°40' W 074°08'0 0.0
2017-Oct-15 08:13N 40°40' W 074°08'0 0.0
2017-Oct-15 08:00N 40°40' W 074°08'0 0.0
2017-Oct-15 07:30N 40°40' W 074°08'0 0.0
2017-Oct-15 07:00N 40°40' W 074°08'1 2.9
2017-Oct-15 06:30N 40°41' W 074°08'2 4.5
2017-Oct-15 06:00N 40°43' W 074°06'2 4.0
2017-Oct-15 05:30N 40°45' W 074°05'0 0.3
2017-Oct-15 04:59N 40°45' W 074°04'0 0.0
2017-Oct-15 04:29N 40°45' W 074°04'0 0.0
2017-Oct-15 04:00N 40°45' W 074°04'0 0.0
2017-Oct-15 03:29N 40°45' W 074°04'0 0.0
2017-Oct-15 03:00N 40°45' W 074°04'0 0.0
2017-Oct-15 02:29N 40°45' W 074°04'0 0.0
2017-Oct-15 01:18N 40°45' W 074°04'0 0.2
2017-Oct-15 00:58N 40°45' W 074°04'0 0.1
2017-Oct-15 00:30N 40°45' W 074°05'0 0.1
2017-Oct-14 23:18N 40°45' W 074°04'0 0.1
2017-Oct-14 23:00N 40°45' W 074°04'0 0.0
2017-Oct-14 15:59N 40°45' W 074°04'0 0.0
2017-Oct-14 15:30N 40°45' W 074°04'0 0.0
2017-Oct-14 14:50N 40°45' W 074°04'0 0.1
2017-Oct-14 14:29N 40°45' W 074°04'0 0.0
2017-Oct-14 14:00N 40°45' W 074°04'0 0.0
2017-Oct-14 13:30N 40°45' W 074°04'0 0.0
2017-Oct-14 13:00N 40°45' W 074°04'0 0.0
2017-Oct-14 12:29N 40°45' W 074°04'0 0.0
2017-Oct-14 11:59N 40°45' W 074°04'0 0.0
2017-Oct-14 11:29N 40°45' W 074°04'0 0.0
2017-Oct-14 10:51N 40°45' W 074°04'0 0.0
2017-Oct-14 10:27N 40°45' W 074°04'0 0.0
2017-Oct-14 04:04N 40°45' W 074°04'0 0.0
2017-Oct-14 03:59N 40°45' W 074°04'0 0.2
2017-Oct-14 03:29N 40°45' W 074°05'1 2.0
2017-Oct-14 03:00N 40°44' W 074°05'0 0.8
2017-Oct-14 02:29N 40°44' W 074°06'2 4.8
2017-Oct-14 02:00N 40°42' W 074°07'1 1.7
2017-Oct-14 01:30N 40°41' W 074°08'4 8.1
2017-Oct-14 01:00N 40°44' W 074°05'0 0.8
2017-Oct-14 00:29N 40°45' W 074°04'0 0.0
2017-Oct-13 23:59N 40°45' W 074°04'0 0.0
2017-Oct-13 23:27N 40°45' W 074°04'0 0.0
2017-Oct-13 21:20N 40°45' W 074°04'0 0.0
2017-Oct-13 20:55N 40°45' W 074°04'0 0.0
2017-Oct-13 20:30N 40°45' W 074°04'0 0.0
2017-Oct-13 11:27N 40°45' W 074°04'0 0.0
2017-Oct-13 10:58N 40°45' W 074°04'0 0.0
2017-Oct-13 02:24N 40°45' W 074°05'1 2.5
2017-Oct-13 02:00N 40°44' W 074°05'3 5.4
2017-Oct-13 01:29N 40°42' W 074°07'2 0.7
2017-Oct-12 22:40N 40°40' W 074°08'0 0.0
2017-Oct-12 22:29N 40°40' W 074°08'0 0.0
2017-Oct-12 21:55N 40°40' W 074°08'0 0.0
2017-Oct-12 21:29N 40°40' W 074°08'0 0.0
2017-Oct-12 20:58N 40°40' W 074°08'0 0.0
2017-Oct-12 20:26N 40°40' W 074°08'0 0.0
2017-Oct-12 19:10N 40°40' W 074°08'0 0.0
2017-Oct-12 18:36N 40°40' W 074°08'0 0.2
2017-Oct-12 18:29N 40°40' W 074°08'1 2.8
2017-Oct-12 18:00N 40°39' W 074°07'3 6.0
2017-Oct-12 17:30N 40°38' W 074°04'1 0.2
2017-Oct-12 13:29N 40°37' W 074°03'0 0.0
2017-Oct-12 13:00N 40°37' W 074°03'0 0.0
2017-Oct-12 12:30N 40°37' W 074°03'0 0.4
2017-Oct-12 12:00N 40°37' W 074°03'0 0.8
2017-Oct-12 11:30N 40°37' W 074°04'0 0.0
2017-Oct-12 11:00N 40°37' W 074°03'1 1.4
2017-Oct-12 10:29N 40°38' W 074°03'2 4.9
2017-Oct-12 10:00N 40°39' W 074°06'2 4.2
2017-Oct-12 09:29N 40°39' W 074°09'3 6.7
2017-Oct-12 09:00N 40°42' W 074°07'2 3.0
2017-Oct-12 08:30N 40°43' W 074°06'1 2.9
2017-Oct-12 08:00N 40°44' W 074°05'1 1.2
2017-Oct-12 07:30N 40°45' W 074°04'0 0.0
2017-Oct-12 07:00N 40°45' W 074°04'0 0.0
2017-Oct-12 06:25N 40°45' W 074°04'0 0.0
2017-Oct-12 05:57N 40°45' W 074°04'0 0.0
2017-Oct-12 04:33N 40°45' W 074°04'0 0.0
2017-Oct-12 04:21N 40°45' W 074°04'0 0.0
2017-Oct-12 03:59N 40°45' W 074°04'0 0.0
2017-Oct-12 03:29N 40°45' W 074°04'0 0.0
2017-Oct-12 01:51N 40°45' W 074°04'0 0.0
2017-Oct-12 01:30N 40°45' W 074°04'0 0.0
2017-Oct-12 00:59N 40°45' W 074°04'0 0.0
2017-Oct-12 00:30N 40°45' W 074°04'0 0.0
2017-Oct-12 00:00N 40°45' W 074°04'0 0.0
2017-Oct-11 23:30N 40°45' W 074°04'0 0.0
2017-Oct-11 23:00N 40°45' W 074°04'0 0.0
2017-Oct-11 22:29N 40°45' W 074°04'0 0.0
2017-Oct-11 21:59N 40°45' W 074°04'0 0.0
2017-Oct-10 23:59N 40°45' W 074°04'1 1.3
2017-Oct-10 23:30N 40°44' W 074°05'3 6.2
2017-Oct-10 23:00N 40°42' W 074°07'2 2.8
2017-Oct-10 22:15N 40°40' W 074°08'0 0.0
2017-Oct-10 20:16N 40°40' W 074°08'0 0.0
2017-Oct-10 19:46N 40°40' W 074°08'0 0.0
2017-Oct-10 19:28N 40°40' W 074°08'1 1.1
2017-Oct-10 18:59N 40°39' W 074°09'2 3.9
2017-Oct-10 18:29N 40°39' W 074°06'3 5.5
2017-Oct-10 17:59N 40°39' W 074°03'0 0.4
2017-Oct-10 17:30N 40°40' W 074°03'0 0.0
2017-Oct-10 16:59N 40°40' W 074°03'0 0.0
2017-Oct-10 16:30N 40°40' W 074°03'0 0.1
2017-Oct-10 16:00N 40°40' W 074°03'0 0.1
2017-Oct-10 15:30N 40°40' W 074°03'0 0.1
2017-Oct-10 15:00N 40°40' W 074°03'0 0.1
2017-Oct-10 14:00N 40°39' W 074°03'0 0.2
2017-Oct-10 13:29N 40°39' W 074°03'0 0.4
2017-Oct-10 13:00N 40°39' W 074°03'0 0.1
2017-Oct-10 12:30N 40°39' W 074°03'5 3.9
2017-Oct-10 11:18N 40°39' W 074°09'1 2.7
2017-Oct-10 11:00N 40°40' W 074°08'0 0.0
2017-Oct-10 10:30N 40°40' W 074°08'0 0.0
2017-Oct-10 10:00N 40°40' W 074°08'0 0.0
2017-Oct-10 09:30N 40°40' W 074°08'0 0.0
2017-Oct-10 08:57N 40°40' W 074°08'0 0.0
2017-Oct-10 08:30N 40°40' W 074°08'0 0.0
2017-Oct-10 07:58N 40°40' W 074°08'0 0.0
2017-Oct-10 07:29N 40°40' W 074°08'0 0.0
2017-Oct-10 07:00N 40°40' W 074°08'0 0.0
2017-Oct-10 06:30N 40°40' W 074°08'0 0.0
2017-Oct-10 05:48N 40°40' W 074°08'0 0.0
2017-Oct-10 05:30N 40°40' W 074°08'0 0.0
2017-Oct-10 04:54N 40°40' W 074°08'0 0.0
2017-Oct-10 04:30N 40°40' W 074°08'0 0.0
2017-Oct-10 04:00N 40°40' W 074°08'0 0.0
2017-Oct-10 03:30N 40°40' W 074°08'0 0.0
2017-Oct-10 03:00N 40°40' W 074°08'0 0.0
2017-Oct-10 02:30N 40°40' W 074°08'0 0.0
2017-Oct-10 01:59N 40°40' W 074°08'0 0.0
2017-Oct-10 01:30N 40°40' W 074°08'0 0.0
2017-Oct-10 01:00N 40°40' W 074°08'0 0.0
2017-Oct-10 00:29N 40°40' W 074°08'0 0.0
2017-Oct-09 23:59N 40°40' W 074°08'0 0.0
2017-Oct-09 23:29N 40°40' W 074°08'0 0.0
2017-Oct-09 23:00N 40°40' W 074°08'2 4.1
2017-Oct-09 22:28N 40°42' W 074°09'0 0.1
2017-Oct-09 21:54N 40°42' W 074°09'2 5.3
2017-Oct-09 21:30N 40°40' W 074°08'0 0.0
2017-Oct-09 21:00N 40°40' W 074°08'0 0.0
2017-Oct-09 20:25N 40°40' W 074°08'0 0.0
2017-Oct-09 19:58N 40°40' W 074°08'0 0.0
2017-Oct-09 19:28N 40°40' W 074°08'0 0.0
2017-Oct-09 18:59N 40°40' W 074°08'0 0.0
2017-Oct-09 18:30N 40°40' W 074°08'0 0.0
2017-Oct-09 18:00N 40°40' W 074°08'0 0.0
2017-Oct-09 17:30N 40°40' W 074°08'0 0.0
2017-Oct-09 17:00N 40°40' W 074°08'0 0.0
2017-Oct-09 16:30N 40°40' W 074°08'0 0.0
2017-Oct-09 16:00N 40°40' W 074°08'0 0.0
2017-Oct-09 15:30N 40°40' W 074°08'0 0.0
2017-Oct-09 15:00N 40°40' W 074°08'0 0.0
2017-Oct-09 14:30N 40°40' W 074°08'0 0.0
2017-Oct-09 14:00N 40°40' W 074°08'0 0.3
2017-Oct-09 13:30N 40°40' W 074°08'2 3.1
2017-Oct-09 13:00N 40°39' W 074°09'3 6.0
2017-Oct-09 12:30N 40°39' W 074°05'1 1.6
2017-Oct-09 12:00N 40°40' W 074°04'0 0.1
2017-Oct-09 11:30N 40°40' W 074°04'0 0.1
2017-Oct-09 11:00N 40°40' W 074°04'1 2.4
2017-Oct-09 10:30N 40°39' W 074°05'3 5.4
2017-Oct-09 10:00N 40°39' W 074°09'1 2.8
2017-Oct-09 09:30N 40°40' W 074°08'0 0.0
2017-Oct-09 09:00N 40°40' W 074°08'0 0.0
2017-Oct-09 08:00N 40°40' W 074°08'0 0.0
2017-Oct-09 07:29N 40°40' W 074°08'0 0.0
2017-Oct-09 06:59N 40°40' W 074°08'0 0.0
2017-Oct-09 06:18N 40°40' W 074°08'0 0.0
2017-Oct-09 05:59N 40°40' W 074°08'0 0.0
2017-Oct-09 05:30N 40°40' W 074°08'0 0.0
2017-Oct-09 04:59N 40°40' W 074°08'0 0.0
2017-Oct-09 04:21N 40°40' W 074°08'0 0.0
2017-Oct-09 03:53N 40°40' W 074°08'0 0.0
2017-Oct-09 03:30N 40°40' W 074°08'0 0.0
2017-Oct-09 03:00N 40°40' W 074°08'0 0.0
2017-Oct-09 02:30N 40°40' W 074°08'0 0.0
2017-Oct-09 01:56N 40°40' W 074°08'0 0.0
2017-Oct-09 01:23N 40°40' W 074°08'0 0.0
2017-Oct-09 00:52N 40°40' W 074°08'0 0.0
2017-Oct-09 00:29N 40°40' W 074°08'0 0.0
2017-Oct-08 23:55N 40°40' W 074°08'0 0.0
2017-Oct-08 23:29N 40°40' W 074°08'0 0.0
2017-Oct-08 23:00N 40°40' W 074°08'0 0.0
2017-Oct-08 22:24N 40°40' W 074°08'0 0.0
2017-Oct-08 22:00N 40°40' W 074°08'0 0.0
2017-Oct-08 21:29N 40°40' W 074°08'0 0.0
2017-Oct-08 21:00N 40°40' W 074°08'0 0.0
2017-Oct-08 20:16N 40°40' W 074°08'0 0.0
2017-Oct-08 20:00N 40°40' W 074°08'0 0.0
2017-Oct-08 19:30N 40°40' W 074°08'0 0.0
2017-Oct-08 19:00N 40°40' W 074°08'0 0.0
2017-Oct-08 18:30N 40°40' W 074°08'0 0.0
2017-Oct-08 18:00N 40°40' W 074°08'0 0.0
2017-Oct-08 17:30N 40°40' W 074°08'0 0.0
2017-Oct-08 17:00N 40°40' W 074°08'0 0.0
2017-Oct-08 16:27N 40°40' W 074°08'0 0.0
2017-Oct-08 15:53N 40°40' W 074°08'0 0.0
2017-Oct-08 15:30N 40°40' W 074°08'0 0.0
2017-Oct-08 14:26N 40°40' W 074°08'0 0.0
2017-Oct-08 14:00N 40°40' W 074°08'0 0.0
2017-Oct-08 13:30N 40°40' W 074°08'0 0.0
2017-Oct-08 12:59N 40°40' W 074°08'0 0.0
2017-Oct-08 10:51N 40°40' W 074°08'0 0.0
2017-Oct-08 10:30N 40°40' W 074°08'0 0.0
2017-Oct-08 09:59N 40°40' W 074°08'0 0.0
2017-Oct-08 09:30N 40°40' W 074°08'0 0.0
2017-Oct-08 08:49N 40°40' W 074°08'0 0.0
2017-Oct-08 08:30N 40°40' W 074°08'0 0.0
2017-Oct-08 08:00N 40°40' W 074°08'0 0.0
2017-Oct-08 07:30N 40°40' W 074°08'0 0.0
2017-Oct-08 06:58N 40°40' W 074°08'0 0.0
2017-Oct-08 06:30N 40°40' W 074°08'0 0.0
2017-Oct-08 05:58N 40°40' W 074°08'0 0.0
2017-Oct-08 05:29N 40°40' W 074°08'0 0.0
2017-Oct-08 05:00N 40°40' W 074°08'0 0.0
2017-Oct-08 04:30N 40°40' W 074°08'0 0.0
2017-Oct-08 03:55N 40°40' W 074°08'0 0.0
2017-Oct-08 03:28N 40°40' W 074°08'0 0.0
2017-Oct-08 03:00N 40°40' W 074°08'  

Dump ship's entire track history